createdAt,value
2022-09-01T04:00:42.381Z,1.60
2022-09-01T04:04:52.563Z,1.60
2022-09-01T04:09:02.553Z,1.63
2022-09-01T04:13:11.658Z,1.83
2022-09-01T04:17:34.697Z,1.35
2022-09-01T04:21:38.256Z,1.60
2022-09-01T04:25:41.552Z,1.48
2022-09-01T04:29:46.736Z,1.50
2022-09-01T04:33:53.634Z,1.60
2022-09-01T04:37:57.409Z,1.58
2022-09-01T04:41:59.984Z,1.40
2022-09-01T04:46:03.275Z,1.53
2022-09-01T04:50:13.886Z,1.73
2022-09-01T04:54:19.642Z,1.35
2022-09-01T04:58:22.964Z,1.60
2022-09-01T05:02:28.121Z,1.70
2022-09-01T05:06:33.847Z,1.65
2022-09-01T05:10:42.148Z,1.50
2022-09-01T05:14:53.992Z,1.60
2022-09-01T05:18:57.930Z,1.85
2022-09-01T05:23:06.363Z,2.20
2022-09-01T05:27:12.525Z,1.55
2022-09-01T05:31:19.651Z,1.77
2022-09-01T05:35:24.686Z,1.73
2022-09-01T05:39:38.351Z,1.80
2022-09-01T05:43:45.323Z,2.15
2022-09-01T05:47:48.855Z,1.70
2022-09-01T05:51:55.051Z,1.95
2022-09-01T05:55:59.894Z,1.88
2022-09-01T06:00:10.941Z,1.77
2022-09-01T06:04:16.076Z,1.83
2022-09-01T06:08:21.533Z,1.70
2022-09-01T06:12:26.847Z,1.63
2022-09-01T06:16:31.006Z,1.70
2022-09-01T06:20:33.870Z,1.80
2022-09-01T06:24:39.637Z,1.65
2022-09-01T06:28:43.634Z,1.70
2022-09-01T06:32:46.776Z,1.70
2022-09-01T06:36:51.721Z,1.80
2022-09-01T06:41:01.935Z,1.50
2022-09-01T06:45:10.296Z,1.67
2022-09-01T06:49:12.911Z,1.60
2022-09-01T06:53:34.439Z,1.50
2022-09-01T07:02:04.660Z,1.60
2022-09-01T07:07:00.118Z,1.50
2022-09-01T07:12:08.124Z,1.38
2022-09-01T07:20:24.755Z,1.42
2022-09-01T07:24:31.818Z,1.50
2022-09-01T07:29:13.326Z,1.10
2022-09-01T07:47:19.882Z,1.40
2022-09-01T07:51:40.776Z,1.08
2022-09-01T07:55:45.541Z,1.20
2022-09-01T07:59:50.375Z,1.40
2022-09-01T08:03:57.934Z,0.90
2022-09-01T08:08:01.118Z,1.02
2022-09-01T08:12:09.659Z,0.90
2022-09-01T08:16:17.848Z,1.20
2022-09-01T08:20:21.316Z,1.30
2022-09-01T08:24:26.889Z,1.10
2022-09-01T08:28:31.135Z,0.90
2022-09-01T08:32:34.426Z,0.93
2022-09-01T08:36:37.570Z,0.90
2022-09-01T08:40:42.814Z,1.08
2022-09-01T08:44:58.396Z,1.38
2022-09-01T08:49:24.260Z,1.00
2022-09-01T08:53:57.877Z,1.15
2022-09-01T08:58:04.812Z,1.00
2022-09-01T09:02:44.768Z,1.10
2022-09-01T09:06:56.052Z,1.25
2022-09-01T09:11:02.163Z,1.10
2022-09-01T09:15:21.874Z,1.55
2022-09-01T09:19:29.737Z,1.45
2022-09-01T09:23:40.343Z,1.17
2022-09-01T09:27:45.295Z,0.90
2022-09-01T09:31:50.687Z,1.10
2022-09-01T09:35:57.591Z,1.20
2022-09-01T09:40:12.083Z,2.05
2022-09-01T09:44:23.147Z,0.90
2022-09-01T09:48:30.628Z,1.42
2022-09-01T09:52:34.485Z,1.30
2022-09-01T09:56:37.219Z,1.17
2022-09-01T10:00:40.126Z,1.15
2022-09-01T10:04:44.195Z,0.93
2022-09-01T10:08:48.190Z,0.82
2022-09-01T10:12:50.828Z,0.82
2022-09-01T10:16:59.212Z,0.88
2022-09-01T10:21:04.363Z,0.80
2022-09-01T10:25:13.086Z,0.90
2022-09-01T10:29:20.995Z,0.70
2022-09-01T10:33:23.845Z,0.75
2022-09-01T10:37:27.722Z,0.90
2022-09-01T10:41:59.494Z,0.60
2022-09-01T10:46:15.703Z,0.60
2022-09-01T10:50:35.343Z,0.55
2022-09-01T10:54:57.883Z,0.85
2022-09-01T11:03:56.549Z,0.73
2022-09-01T11:08:01.501Z,0.80
2022-09-01T11:12:44.262Z,0.70
2022-09-01T11:17:16.958Z,0.82
2022-09-01T11:21:26.243Z,0.70
2022-09-01T11:25:39.224Z,0.70
2022-09-01T11:29:55.696Z,0.70
2022-09-01T11:34:20.864Z,0.60
2022-09-01T11:38:24.511Z,0.68
2022-09-01T11:42:30.611Z,0.90
2022-09-01T11:46:36.679Z,0.98
2022-09-01T11:50:42.928Z,0.90
2022-09-01T11:54:47.551Z,0.70
2022-09-01T11:58:50.113Z,0.80
2022-09-01T12:02:54.405Z,0.70
2022-09-01T12:07:02.290Z,0.60
2022-09-01T12:11:07.862Z,0.65
2022-09-01T12:15:18.898Z,0.80
2022-09-01T12:19:25.379Z,0.80
2022-09-01T12:23:31.621Z,0.70
2022-09-01T12:27:36.571Z,0.63
2022-09-01T12:31:43.080Z,0.80
2022-09-01T12:35:46.271Z,0.90
2022-09-01T12:39:52.089Z,0.80
2022-09-01T12:43:55.060Z,0.70
2022-09-01T12:47:58.843Z,1.13
2022-09-01T12:52:25.329Z,0.77
2022-09-01T12:56:31.874Z,0.80
2022-09-01T14:18:49.039Z,0.52
2022-09-01T14:22:53.016Z,0.70
2022-09-01T14:26:55.551Z,0.90
2022-09-01T14:35:00.917Z,0.80
2022-09-01T14:39:03.501Z,0.77
2022-09-01T14:43:09.684Z,0.50
2022-09-01T14:47:18.223Z,0.55
2022-09-01T14:51:26.946Z,0.88
2022-09-01T14:55:51.521Z,1.90
2022-09-01T14:59:57.735Z,0.80
2022-09-01T15:04:00.516Z,0.68
2022-09-01T15:12:09.431Z,0.52
2022-09-01T15:20:37.502Z,0.57
2022-09-01T15:24:41.474Z,0.68
2022-09-01T15:28:44.785Z,0.70
2022-09-01T15:32:49.403Z,0.80
2022-09-01T15:36:51.955Z,0.68
2022-09-01T15:40:58.530Z,0.52
2022-09-01T15:45:01.509Z,0.70
2022-09-01T15:49:06.677Z,0.60
2022-09-01T15:53:13.120Z,0.68
2022-09-01T15:57:18.316Z,0.73
2022-09-01T16:01:22.290Z,0.65
2022-09-01T16:05:25.922Z,0.60
2022-09-01T16:09:29.126Z,0.38
2022-09-01T16:13:33.048Z,0.60
2022-09-01T16:17:49.290Z,0.65
2022-09-01T16:21:58.872Z,0.60
2022-09-01T16:26:01.920Z,0.52
2022-09-01T16:30:08.576Z,0.75
2022-09-01T16:34:18.156Z,0.55
2022-09-01T16:38:34.887Z,0.50
2022-09-01T16:42:46.954Z,0.57
2022-09-01T16:47:00.794Z,0.50
2022-09-01T16:51:12.657Z,0.47
2022-09-01T16:55:24.668Z,0.50
2022-09-01T16:59:38.249Z,0.90
2022-09-01T17:03:55.567Z,0.70
2022-09-01T17:08:07.706Z,0.50
2022-09-01T17:12:23.520Z,0.40
2022-09-01T17:16:30.674Z,0.63
2022-09-01T17:20:40.540Z,0.73
2022-09-01T17:24:46.168Z,0.65
2022-09-01T17:28:55.262Z,0.50
2022-09-01T17:33:12.124Z,0.60
2022-09-01T17:37:33.025Z,0.70
2022-09-01T17:41:39.580Z,0.40
2022-09-01T17:45:51.451Z,0.70
2022-09-01T17:49:59.716Z,0.43
2022-09-01T17:54:14.682Z,0.60
2022-09-01T17:58:32.430Z,0.68
2022-09-01T18:03:14.779Z,0.50
2022-09-01T18:07:34.921Z,0.80
2022-09-01T18:11:44.448Z,0.50
2022-09-01T18:15:52.534Z,0.60
2022-09-01T18:20:05.011Z,0.50
2022-09-01T18:24:16.529Z,0.60
2022-09-01T18:28:20.425Z,0.70
2022-09-01T18:32:35.123Z,0.50
2022-09-01T18:36:52.086Z,0.90
2022-09-01T18:41:10.334Z,0.90
2022-09-01T18:45:25.561Z,0.65
2022-09-01T18:49:34.970Z,0.70
2022-09-01T18:53:46.580Z,0.65
2022-09-01T18:57:54.446Z,0.60
2022-09-01T19:02:08.531Z,0.52
2022-09-01T19:06:24.177Z,0.75
2022-09-01T19:10:33.142Z,0.82
2022-09-01T19:14:43.287Z,0.80
2022-09-01T19:18:55.896Z,0.70
2022-09-01T19:23:03.453Z,0.60
2022-09-01T19:27:11.133Z,0.93
2022-09-01T19:31:22.117Z,0.68
2022-09-01T19:35:26.868Z,0.85
2022-09-01T19:39:31.870Z,0.70
2022-09-01T19:43:38.611Z,0.38
2022-09-01T19:47:48.248Z,0.73
2022-09-01T19:51:59.591Z,0.75
2022-09-01T19:56:08.623Z,0.80
2022-09-01T20:00:15.421Z,0.65
2022-09-01T20:04:27.747Z,0.88
2022-09-01T20:08:38.001Z,0.93
2022-09-01T20:12:48.499Z,0.70
2022-09-01T20:16:54.119Z,0.70
2022-09-01T20:21:00.448Z,0.90
2022-09-01T20:25:10.204Z,0.60
2022-09-01T20:29:19.292Z,0.70
2022-09-01T20:33:34.644Z,0.70
2022-09-01T20:37:39.914Z,0.80
2022-09-01T20:41:52.916Z,0.70
2022-09-01T20:45:55.522Z,0.88
2022-09-01T20:50:00.080Z,0.80
2022-09-01T20:54:24.411Z,0.82
2022-09-01T20:58:34.539Z,0.90
